Audacia — ZCIM3 — position and weather

sailwx.info

Track history (hours):
 
Tides and Currents Weather Stations Pressure Air Temp Water Temp Dewpoint Dewpoint Depression Visibility Wind Speed Wind Dir Waves Ship Positions

Audacia

Last reported at 2016-May-01 04:23 UTC. Time now 2016-May-01 06:08 UTC.
Position N 26°08' W 080°07'.

; draft 3 m.

Type: Pleasure craft. MMSI: 319825000.

Date/timePositionNaut miles runAvg speedWind from/ knotsBaromVisibWave heightAir tempDewpointWater temp
2016-May-01 04:23N 26°08' W 080°07'0 0.0
2016-May-01 03:23N 26°08' W 080°07'0 0.0
2016-May-01 02:23N 26°08' W 080°07'0 0.0
2016-May-01 01:26N 26°08' W 080°07'0 0.0
2016-May-01 00:26N 26°08' W 080°07'0 0.0
2016-Apr-30 23:26N 26°08' W 080°07'0 0.0
2016-Apr-30 22:26N 26°08' W 080°07'0 0.0
2016-Apr-30 21:29N 26°08' W 080°07'0 0.0
2016-Apr-30 20:29N 26°08' W 080°07'0 0.0
2016-Apr-30 19:29N 26°08' W 080°07'0 0.0
2016-Apr-30 18:29N 26°08' W 080°07'0 0.0
2016-Apr-30 17:29N 26°08' W 080°07'0 0.0
2016-Apr-30 16:31N 26°08' W 080°07'0 0.0
2016-Apr-30 15:31N 26°08' W 080°07'0 0.0
2016-Apr-30 14:31N 26°08' W 080°07'0 0.0
2016-Apr-30 13:31N 26°08' W 080°07'0 0.0
2016-Apr-30 12:31N 26°08' W 080°07'0 0.0
2016-Apr-30 11:31N 26°08' W 080°07'0 0.0
2016-Apr-30 10:31N 26°08' W 080°07'0 0.0
2016-Apr-30 09:28N 26°08' W 080°07'0 0.0
2016-Apr-30 08:31N 26°08' W 080°07'0 0.0
2016-Apr-30 07:19N 26°08' W 080°07'0 0.0
2016-Apr-30 06:31N 26°08' W 080°07'0 0.0
2016-Apr-30 05:31N 26°08' W 080°07'0 0.0
2016-Apr-30 04:31N 26°08' W 080°07'0 0.0
2016-Apr-30 03:22N 26°08' W 080°07'0 0.0
2016-Apr-30 02:22N 26°08' W 080°07'0 0.0
2016-Apr-30 01:22N 26°08' W 080°07'0 0.0
2016-Apr-30 00:25N 26°08' W 080°07'0 0.0
2016-Apr-29 23:25N 26°08' W 080°07'0 0.0
2016-Apr-29 22:25N 26°08' W 080°07'0 0.0
2016-Apr-29 21:25N 26°08' W 080°07'0 0.0
2016-Apr-29 20:25N 26°08' W 080°07'0 0.0
2016-Apr-29 19:28N 26°08' W 080°07'0 0.0
2016-Apr-29 18:28N 26°08' W 080°07'0 0.0
2016-Apr-29 17:28N 26°08' W 080°07'0 0.0
2016-Apr-29 16:28N 26°08' W 080°07'0 0.0
2016-Apr-29 15:28N 26°08' W 080°07'0 0.0
2016-Apr-29 14:28N 26°08' W 080°07'0 0.0
2016-Apr-29 13:31N 26°08' W 080°07'0 0.0
2016-Apr-29 12:31N 26°08' W 080°07'0 0.0
2016-Apr-29 11:31N 26°08' W 080°07'0 0.0
2016-Apr-29 10:31N 26°08' W 080°07'0 0.0
2016-Apr-29 09:31N 26°08' W 080°07'0 0.0
2016-Apr-29 08:34N 26°08' W 080°07'0 0.0
2016-Apr-29 07:33N 26°08' W 080°07'0 0.0
2016-Apr-29 06:33N 26°08' W 080°07'0 0.0
2016-Apr-29 05:33N 26°08' W 080°07'0 0.0
2016-Apr-29 04:33N 26°08' W 080°07'0 0.0
2016-Apr-29 03:33N 26°08' W 080°07'0 0.0
2016-Apr-29 02:33N 26°08' W 080°07'0 0.0
2016-Apr-29 01:33N 26°08' W 080°07'0 0.0
2016-Apr-29 00:33N 26°08' W 080°07'0 0.0
2016-Apr-28 23:33N 26°08' W 080°07'0 0.0
2016-Apr-28 22:33N 26°08' W 080°07'0 0.0
2016-Apr-28 21:33N 26°08' W 080°07'1 1.2
2016-Apr-28 20:33N 26°07' W 080°07'6 6.1
2016-Apr-28 19:34N 26°04' W 080°01'1212.2
2016-Apr-28 18:32N 25°57' W 079°50'14 0.6
2016-Apr-27 20:33N 25°52' W 079°35'10 9.8
2016-Apr-27 19:33N 25°57' W 079°45'9 9.1
2016-Apr-27 18:33N 26°01' W 079°54'10 9.9
2016-Apr-27 17:33N 26°02' W 080°05'6 5.8
2016-Apr-27 16:33N 26°08' W 080°07'0 0.2
2016-Apr-27 15:27N 26°08' W 080°07'0 0.0
2016-Apr-27 14:29N 26°08' W 080°07'0 0.0
2016-Apr-27 13:29N 26°08' W 080°07'0 0.0
2016-Apr-27 12:29N 26°08' W 080°07'0 0.0
2016-Apr-27 11:29N 26°08' W 080°07'0 0.0
2016-Apr-27 10:32N 26°08' W 080°07'0 0.0
2016-Apr-27 09:32N 26°08' W 080°07'0 0.0
2016-Apr-27 08:32N 26°08' W 080°07'0 0.0
2016-Apr-27 07:32N 26°08' W 080°07'0 0.0
2016-Apr-27 06:32N 26°08' W 080°07'0 0.0
2016-Apr-27 05:32N 26°08' W 080°07'0 0.0
2016-Apr-27 04:32N 26°08' W 080°07'0 0.0
2016-Apr-27 03:32N 26°08' W 080°07'0 0.0
2016-Apr-27 02:32N 26°08' W 080°07'0 0.0
2016-Apr-27 01:32N 26°08' W 080°07'0 0.0
2016-Apr-27 00:20N 26°08' W 080°07'0 0.0
2016-Apr-26 23:32N 26°08' W 080°07'0 0.0
2016-Apr-26 22:32N 26°08' W 080°07'0 0.0
2016-Apr-26 21:32N 26°08' W 080°07'0 0.0
2016-Apr-26 20:23N 26°08' W 080°07'0 0.0
2016-Apr-26 19:23N 26°08' W 080°07'0 0.0
2016-Apr-26 18:26N 26°08' W 080°07'0 0.0
2016-Apr-26 17:26N 26°08' W 080°07'0 0.0
2016-Apr-26 16:26N 26°08' W 080°07'0 0.0
2016-Apr-26 15:26N 26°08' W 080°07'0 0.0
2016-Apr-26 14:23N 26°08' W 080°07'0 0.0
2016-Apr-26 13:26N 26°08' W 080°07'0 0.0
2016-Apr-26 12:29N 26°08' W 080°07'0 0.0
2016-Apr-26 11:29N 26°08' W 080°07'0 0.0
2016-Apr-26 10:29N 26°08' W 080°07'0 0.0
2016-Apr-26 09:29N 26°08' W 080°07'0 0.0
2016-Apr-26 08:29N 26°08' W 080°07'0 0.0
2016-Apr-26 07:28N 26°08' W 080°07'0 0.0
2016-Apr-26 06:31N 26°08' W 080°07'0 0.0
2016-Apr-26 05:28N 26°08' W 080°07'0 0.0
2016-Apr-26 04:28N 26°08' W 080°07'0 0.0
2016-Apr-26 03:28N 26°08' W 080°07'0 0.0
2016-Apr-26 02:31N 26°08' W 080°07'0 0.0
2016-Apr-26 01:31N 26°08' W 080°07'0 0.0
2016-Apr-26 00:31N 26°08' W 080°07'0 0.0
2016-Apr-25 23:31N 26°08' W 080°07'0 0.0
2016-Apr-25 22:31N 26°08' W 080°07'0 0.0
2016-Apr-25 21:31N 26°08' W 080°07'0 0.0
2016-Apr-25 20:31N 26°08' W 080°07'0 0.0
2016-Apr-25 19:31N 26°08' W 080°07'0 0.0
2016-Apr-25 18:22N 26°08' W 080°07'0 0.0
2016-Apr-25 17:22N 26°08' W 080°07'0 0.0
2016-Apr-25 16:25N 26°08' W 080°07'0 0.0
2016-Apr-25 15:25N 26°08' W 080°07'0 0.0
2016-Apr-25 14:25N 26°08' W 080°07'0 0.0
2016-Apr-25 13:25N 26°08' W 080°07'0 0.0
2016-Apr-25 12:25N 26°08' W 080°07'0 0.0
2016-Apr-25 11:25N 26°08' W 080°07'0 0.0
2016-Apr-25 10:28N 26°08' W 080°07'0 0.0
2016-Apr-25 09:28N 26°08' W 080°07'0 0.0
2016-Apr-25 08:28N 26°08' W 080°07'0 0.0
2016-Apr-25 07:28N 26°08' W 080°07'0 0.0
2016-Apr-25 06:28N 26°08' W 080°07'0 0.0
2016-Apr-25 05:31N 26°08' W 080°07'0 0.0
2016-Apr-25 04:31N 26°08' W 080°07'0 0.0
2016-Apr-25 03:31N 26°08' W 080°07'0 0.0
2016-Apr-25 02:28N 26°08' W 080°07'0 0.0
2016-Apr-25 01:31N 26°08' W 080°07'0 0.0
2016-Apr-25 00:31N 26°08' W 080°07'0 0.0
2016-Apr-24 23:34N 26°08' W 080°07'0 0.0
2016-Apr-24 22:33N 26°08' W 080°07'0 0.0
2016-Apr-24 21:33N 26°08' W 080°07'0 0.0
2016-Apr-24 20:33N 26°08' W 080°07'0 0.0
2016-Apr-24 19:33N 26°08' W 080°07'0 0.0
2016-Apr-24 18:33N 26°08' W 080°07'0 0.0
2016-Apr-24 17:33N 26°08' W 080°07'0 0.0
2016-Apr-24 16:33N 26°08' W 080°07'0 0.0
2016-Apr-24 15:33N 26°08' W 080°07'0 0.0
2016-Apr-24 14:33N 26°08' W 080°07'0 0.0
2016-Apr-24 13:33N 26°08' W 080°07'0 0.0
2016-Apr-24 12:33N 26°08' W 080°07'0 0.0
2016-Apr-24 11:33N 26°08' W 080°07'0 0.0
2016-Apr-24 10:24N 26°08' W 080°07'0 0.0
2016-Apr-24 09:24N 26°08' W 080°07'0 0.0
2016-Apr-24 08:27N 26°08' W 080°07'0 0.0
2016-Apr-24 07:27N 26°08' W 080°07'0 0.0
2016-Apr-24 06:27N 26°08' W 080°07'0 0.0
2016-Apr-24 05:27N 26°08' W 080°07'0 0.0
2016-Apr-24 04:27N 26°08' W 080°07'0 0.0
2016-Apr-24 03:27N 26°08' W 080°07'0 0.0
2016-Apr-24 02:30N 26°08' W 080°07'0 0.0
2016-Apr-24 01:30N 26°08' W 080°07'0 0.0
2016-Apr-24 00:30N 26°08' W 080°07'0 0.0
2016-Apr-23 23:30N 26°08' W 080°07'0 0.0
2016-Apr-23 22:30N 26°08' W 080°07'0 0.0
2016-Apr-23 21:33N 26°08' W 080°07'0 0.0
2016-Apr-23 20:33N 26°08' W 080°07'0 0.0
2016-Apr-23 19:33N 26°08' W 080°07'0 0.0
2016-Apr-23 18:33N 26°08' W 080°07'0 0.0
2016-Apr-23 17:33N 26°08' W 080°07'0 0.0
2016-Apr-23 16:33N 26°08' W 080°07'0 0.0
2016-Apr-23 15:33N 26°08' W 080°07'0 0.0
2016-Apr-23 14:33N 26°08' W 080°07'0 0.0
2016-Apr-23 13:32N 26°08' W 080°07'0 0.0
2016-Apr-23 12:32N 26°08' W 080°07'0 0.0
2016-Apr-23 11:32N 26°08' W 080°07'0 0.0
2016-Apr-23 10:32N 26°08' W 080°07'0 0.0
2016-Apr-23 09:32N 26°08' W 080°07'0 0.0
2016-Apr-23 08:23N 26°08' W 080°07'0 0.0
2016-Apr-23 07:23N 26°08' W 080°07'0 0.0
2016-Apr-23 06:23N 26°08' W 080°07'0 0.0
2016-Apr-23 04:23N 26°08' W 080°07'0 0.0
2016-Apr-23 03:26N 26°08' W 080°07'0 0.0
2016-Apr-23 02:26N 26°08' W 080°07'0 0.0
2016-Apr-23 01:26N 26°08' W 080°07'0 0.0
2016-Apr-23 00:29N 26°08' W 080°07'0 0.0
2016-Apr-22 23:29N 26°08' W 080°07'0 0.0
2016-Apr-22 22:29N 26°08' W 080°07'0 0.0
2016-Apr-22 21:29N 26°08' W 080°07'0 0.0
2016-Apr-22 20:29N 26°08' W 080°07'0 0.0
2016-Apr-22 19:32N 26°08' W 080°07'0 0.0
2016-Apr-22 18:29N 26°08' W 080°07'0 0.0
2016-Apr-22 17:32N 26°08' W 080°07'0 0.0
2016-Apr-22 16:32N 26°08' W 080°07'0 0.0
2016-Apr-22 15:32N 26°08' W 080°07'0 0.0
2016-Apr-22 14:32N 26°08' W 080°07'0 0.0
2016-Apr-22 13:32N 26°08' W 080°07'0 0.0
2016-Apr-22 12:32N 26°08' W 080°07'0 0.0
2016-Apr-22 11:32N 26°08' W 080°07'0 0.0
2016-Apr-22 10:32N 26°08' W 080°07'0 0.0
2016-Apr-22 09:32N 26°08' W 080°07'0 0.0
2016-Apr-22 08:32N 26°08' W 080°07'0 0.0
2016-Apr-22 07:32N 26°08' W 080°07'0 0.0
2016-Apr-22 06:32N 26°08' W 080°07'0 0.0
2016-Apr-22 05:23N 26°08' W 080°07'0 0.0
2016-Apr-22 04:22N 26°08' W 080°07'0 0.0
2016-Apr-22 03:25N 26°08' W 080°07'0 0.0
2016-Apr-22 02:25N 26°08' W 080°07'0 0.0
2016-Apr-22 01:25N 26°08' W 080°07'0 0.0
2016-Apr-22 00:25N 26°08' W 080°07'0 0.0
2016-Apr-21 23:25N 26°08' W 080°07'0 0.0
2016-Apr-21 22:28N 26°08' W 080°07'0 0.0
2016-Apr-21 21:28N 26°08' W 080°07'0 0.0
2016-Apr-21 20:28N 26°08' W 080°07'0 0.0
2016-Apr-21 19:28N 26°08' W 080°07'0 0.0
2016-Apr-21 18:28N 26°08' W 080°07'0 0.0
2016-Apr-21 17:10N 26°08' W 080°07'0 0.0
2016-Apr-21 16:25N 26°08' W 080°07'  
Track history (hours):
 
Tides and Currents Weather Stations Pressure Air Temp Water Temp Dewpoint Dewpoint Depression Visibility Wind Speed Wind Dir Waves Ship Positions

Audacia

Last reported at 2016-May-01 04:23 UTC. Time now 2016-May-01 06:08 UTC.
Position N 26°08' W 080°07'.

; draft 3 m.

Type: Pleasure craft. MMSI: 319825000.

Date/timePositionNaut miles runAvg speedWind from/ knotsBaromVisibWave heightAir tempDewpointWater temp
2016-May-01 04:23N 26°08' W 080°07'0 0.0
2016-May-01 03:23N 26°08' W 080°07'0 0.0
2016-May-01 02:23N 26°08' W 080°07'0 0.0
2016-May-01 01:26N 26°08' W 080°07'0 0.0
2016-May-01 00:26N 26°08' W 080°07'0 0.0
2016-Apr-30 23:26N 26°08' W 080°07'0 0.0
2016-Apr-30 22:26N 26°08' W 080°07'0 0.0
2016-Apr-30 21:29N 26°08' W 080°07'0 0.0
2016-Apr-30 20:29N 26°08' W 080°07'0 0.0
2016-Apr-30 19:29N 26°08' W 080°07'0 0.0
2016-Apr-30 18:29N 26°08' W 080°07'0 0.0
2016-Apr-30 17:29N 26°08' W 080°07'0 0.0
2016-Apr-30 16:31N 26°08' W 080°07'0 0.0
2016-Apr-30 15:31N 26°08' W 080°07'0 0.0
2016-Apr-30 14:31N 26°08' W 080°07'0 0.0
2016-Apr-30 13:31N 26°08' W 080°07'0 0.0
2016-Apr-30 12:31N 26°08' W 080°07'0 0.0
2016-Apr-30 11:31N 26°08' W 080°07'0 0.0
2016-Apr-30 10:31N 26°08' W 080°07'0 0.0
2016-Apr-30 09:28N 26°08' W 080°07'0 0.0
2016-Apr-30 08:31N 26°08' W 080°07'0 0.0
2016-Apr-30 07:19N 26°08' W 080°07'0 0.0
2016-Apr-30 06:31N 26°08' W 080°07'0 0.0
2016-Apr-30 05:31N 26°08' W 080°07'0 0.0
2016-Apr-30 04:31N 26°08' W 080°07'0 0.0
2016-Apr-30 03:22N 26°08' W 080°07'0 0.0
2016-Apr-30 02:22N 26°08' W 080°07'0 0.0
2016-Apr-30 01:22N 26°08' W 080°07'0 0.0
2016-Apr-30 00:25N 26°08' W 080°07'0 0.0
2016-Apr-29 23:25N 26°08' W 080°07'0 0.0
2016-Apr-29 22:25N 26°08' W 080°07'0 0.0
2016-Apr-29 21:25N 26°08' W 080°07'0 0.0
2016-Apr-29 20:25N 26°08' W 080°07'0 0.0
2016-Apr-29 19:28N 26°08' W 080°07'0 0.0
2016-Apr-29 18:28N 26°08' W 080°07'0 0.0
2016-Apr-29 17:28N 26°08' W 080°07'0 0.0
2016-Apr-29 16:28N 26°08' W 080°07'0 0.0
2016-Apr-29 15:28N 26°08' W 080°07'0 0.0
2016-Apr-29 14:28N 26°08' W 080°07'0 0.0
2016-Apr-29 13:31N 26°08' W 080°07'0 0.0
2016-Apr-29 12:31N 26°08' W 080°07'0 0.0
2016-Apr-29 11:31N 26°08' W 080°07'0 0.0
2016-Apr-29 10:31N 26°08' W 080°07'0 0.0
2016-Apr-29 09:31N 26°08' W 080°07'0 0.0
2016-Apr-29 08:34N 26°08' W 080°07'0 0.0
2016-Apr-29 07:33N 26°08' W 080°07'0 0.0
2016-Apr-29 06:33N 26°08' W 080°07'0 0.0
2016-Apr-29 05:33N 26°08' W 080°07'0 0.0
2016-Apr-29 04:33N 26°08' W 080°07'0 0.0
2016-Apr-29 03:33N 26°08' W 080°07'0 0.0
2016-Apr-29 02:33N 26°08' W 080°07'0 0.0
2016-Apr-29 01:33N 26°08' W 080°07'0 0.0
2016-Apr-29 00:33N 26°08' W 080°07'0 0.0
2016-Apr-28 23:33N 26°08' W 080°07'0 0.0
2016-Apr-28 22:33N 26°08' W 080°07'0 0.0
2016-Apr-28 21:33N 26°08' W 080°07'1 1.2
2016-Apr-28 20:33N 26°07' W 080°07'6 6.1
2016-Apr-28 19:34N 26°04' W 080°01'1212.2
2016-Apr-28 18:32N 25°57' W 079°50'14 0.6
2016-Apr-27 20:33N 25°52' W 079°35'10 9.8
2016-Apr-27 19:33N 25°57' W 079°45'9 9.1
2016-Apr-27 18:33N 26°01' W 079°54'10 9.9
2016-Apr-27 17:33N 26°02' W 080°05'6 5.8
2016-Apr-27 16:33N 26°08' W 080°07'0 0.2
2016-Apr-27 15:27N 26°08' W 080°07'0 0.0
2016-Apr-27 14:29N 26°08' W 080°07'0 0.0
2016-Apr-27 13:29N 26°08' W 080°07'0 0.0
2016-Apr-27 12:29N 26°08' W 080°07'0 0.0
2016-Apr-27 11:29N 26°08' W 080°07'0 0.0
2016-Apr-27 10:32N 26°08' W 080°07'0 0.0
2016-Apr-27 09:32N 26°08' W 080°07'0 0.0
2016-Apr-27 08:32N 26°08' W 080°07'0 0.0
2016-Apr-27 07:32N 26°08' W 080°07'0 0.0
2016-Apr-27 06:32N 26°08' W 080°07'0 0.0
2016-Apr-27 05:32N 26°08' W 080°07'0 0.0
2016-Apr-27 04:32N 26°08' W 080°07'0 0.0
2016-Apr-27 03:32N 26°08' W 080°07'0 0.0
2016-Apr-27 02:32N 26°08' W 080°07'0 0.0
2016-Apr-27 01:32N 26°08' W 080°07'0 0.0
2016-Apr-27 00:20N 26°08' W 080°07'0 0.0
2016-Apr-26 23:32N 26°08' W 080°07'0 0.0
2016-Apr-26 22:32N 26°08' W 080°07'0 0.0
2016-Apr-26 21:32N 26°08' W 080°07'0 0.0
2016-Apr-26 20:23N 26°08' W 080°07'0 0.0
2016-Apr-26 19:23N 26°08' W 080°07'0 0.0
2016-Apr-26 18:26N 26°08' W 080°07'0 0.0
2016-Apr-26 17:26N 26°08' W 080°07'0 0.0
2016-Apr-26 16:26N 26°08' W 080°07'0 0.0
2016-Apr-26 15:26N 26°08' W 080°07'0 0.0
2016-Apr-26 14:23N 26°08' W 080°07'0 0.0
2016-Apr-26 13:26N 26°08' W 080°07'0 0.0
2016-Apr-26 12:29N 26°08' W 080°07'0 0.0
2016-Apr-26 11:29N 26°08' W 080°07'0 0.0
2016-Apr-26 10:29N 26°08' W 080°07'0 0.0
2016-Apr-26 09:29N 26°08' W 080°07'0 0.0
2016-Apr-26 08:29N 26°08' W 080°07'0 0.0
2016-Apr-26 07:28N 26°08' W 080°07'0 0.0
2016-Apr-26 06:31N 26°08' W 080°07'0 0.0
2016-Apr-26 05:28N 26°08' W 080°07'0 0.0
2016-Apr-26 04:28N 26°08' W 080°07'0 0.0
2016-Apr-26 03:28N 26°08' W 080°07'0 0.0
2016-Apr-26 02:31N 26°08' W 080°07'0 0.0
2016-Apr-26 01:31N 26°08' W 080°07'0 0.0
2016-Apr-26 00:31N 26°08' W 080°07'0 0.0
2016-Apr-25 23:31N 26°08' W 080°07'0 0.0
2016-Apr-25 22:31N 26°08' W 080°07'0 0.0
2016-Apr-25 21:31N 26°08' W 080°07'0 0.0
2016-Apr-25 20:31N 26°08' W 080°07'0 0.0
2016-Apr-25 19:31N 26°08' W 080°07'0 0.0
2016-Apr-25 18:22N 26°08' W 080°07'0 0.0
2016-Apr-25 17:22N 26°08' W 080°07'0 0.0
2016-Apr-25 16:25N 26°08' W 080°07'0 0.0
2016-Apr-25 15:25N 26°08' W 080°07'0 0.0
2016-Apr-25 14:25N 26°08' W 080°07'0 0.0
2016-Apr-25 13:25N 26°08' W 080°07'0 0.0
2016-Apr-25 12:25N 26°08' W 080°07'0 0.0
2016-Apr-25 11:25N 26°08' W 080°07'0 0.0
2016-Apr-25 10:28N 26°08' W 080°07'0 0.0
2016-Apr-25 09:28N 26°08' W 080°07'0 0.0
2016-Apr-25 08:28N 26°08' W 080°07'0 0.0
2016-Apr-25 07:28N 26°08' W 080°07'0 0.0
2016-Apr-25 06:28N 26°08' W 080°07'0 0.0
2016-Apr-25 05:31N 26°08' W 080°07'0 0.0
2016-Apr-25 04:31N 26°08' W 080°07'0 0.0
2016-Apr-25 03:31N 26°08' W 080°07'0 0.0
2016-Apr-25 02:28N 26°08' W 080°07'0 0.0
2016-Apr-25 01:31N 26°08' W 080°07'0 0.0
2016-Apr-25 00:31N 26°08' W 080°07'0 0.0
2016-Apr-24 23:34N 26°08' W 080°07'0 0.0
2016-Apr-24 22:33N 26°08' W 080°07'0 0.0
2016-Apr-24 21:33N 26°08' W 080°07'0 0.0
2016-Apr-24 20:33N 26°08' W 080°07'0 0.0
2016-Apr-24 19:33N 26°08' W 080°07'0 0.0
2016-Apr-24 18:33N 26°08' W 080°07'0 0.0
2016-Apr-24 17:33N 26°08' W 080°07'0 0.0
2016-Apr-24 16:33N 26°08' W 080°07'0 0.0
2016-Apr-24 15:33N 26°08' W 080°07'0 0.0
2016-Apr-24 14:33N 26°08' W 080°07'0 0.0
2016-Apr-24 13:33N 26°08' W 080°07'0 0.0
2016-Apr-24 12:33N 26°08' W 080°07'0 0.0
2016-Apr-24 11:33N 26°08' W 080°07'0 0.0
2016-Apr-24 10:24N 26°08' W 080°07'0 0.0
2016-Apr-24 09:24N 26°08' W 080°07'0 0.0
2016-Apr-24 08:27N 26°08' W 080°07'0 0.0
2016-Apr-24 07:27N 26°08' W 080°07'0 0.0
2016-Apr-24 06:27N 26°08' W 080°07'0 0.0
2016-Apr-24 05:27N 26°08' W 080°07'0 0.0
2016-Apr-24 04:27N 26°08' W 080°07'0 0.0
2016-Apr-24 03:27N 26°08' W 080°07'0 0.0
2016-Apr-24 02:30N 26°08' W 080°07'0 0.0
2016-Apr-24 01:30N 26°08' W 080°07'0 0.0
2016-Apr-24 00:30N 26°08' W 080°07'0 0.0
2016-Apr-23 23:30N 26°08' W 080°07'0 0.0
2016-Apr-23 22:30N 26°08' W 080°07'0 0.0
2016-Apr-23 21:33N 26°08' W 080°07'0 0.0
2016-Apr-23 20:33N 26°08' W 080°07'0 0.0
2016-Apr-23 19:33N 26°08' W 080°07'0 0.0
2016-Apr-23 18:33N 26°08' W 080°07'0 0.0
2016-Apr-23 17:33N 26°08' W 080°07'0 0.0
2016-Apr-23 16:33N 26°08' W 080°07'0 0.0
2016-Apr-23 15:33N 26°08' W 080°07'0 0.0
2016-Apr-23 14:33N 26°08' W 080°07'0 0.0
2016-Apr-23 13:32N 26°08' W 080°07'0 0.0
2016-Apr-23 12:32N 26°08' W 080°07'0 0.0
2016-Apr-23 11:32N 26°08' W 080°07'0 0.0
2016-Apr-23 10:32N 26°08' W 080°07'0 0.0
2016-Apr-23 09:32N 26°08' W 080°07'0 0.0
2016-Apr-23 08:23N 26°08' W 080°07'0 0.0
2016-Apr-23 07:23N 26°08' W 080°07'0 0.0
2016-Apr-23 06:23N 26°08' W 080°07'0 0.0
2016-Apr-23 04:23N 26°08' W 080°07'0 0.0
2016-Apr-23 03:26N 26°08' W 080°07'0 0.0
2016-Apr-23 02:26N 26°08' W 080°07'0 0.0
2016-Apr-23 01:26N 26°08' W 080°07'0 0.0
2016-Apr-23 00:29N 26°08' W 080°07'0 0.0
2016-Apr-22 23:29N 26°08' W 080°07'0 0.0
2016-Apr-22 22:29N 26°08' W 080°07'0 0.0
2016-Apr-22 21:29N 26°08' W 080°07'0 0.0
2016-Apr-22 20:29N 26°08' W 080°07'0 0.0
2016-Apr-22 19:32N 26°08' W 080°07'0 0.0
2016-Apr-22 18:29N 26°08' W 080°07'0 0.0
2016-Apr-22 17:32N 26°08' W 080°07'0 0.0
2016-Apr-22 16:32N 26°08' W 080°07'0 0.0
2016-Apr-22 15:32N 26°08' W 080°07'0 0.0
2016-Apr-22 14:32N 26°08' W 080°07'0 0.0
2016-Apr-22 13:32N 26°08' W 080°07'0 0.0
2016-Apr-22 12:32N 26°08' W 080°07'0 0.0
2016-Apr-22 11:32N 26°08' W 080°07'0 0.0
2016-Apr-22 10:32N 26°08' W 080°07'0 0.0
2016-Apr-22 09:32N 26°08' W 080°07'0 0.0
2016-Apr-22 08:32N 26°08' W 080°07'0 0.0
2016-Apr-22 07:32N 26°08' W 080°07'0 0.0
2016-Apr-22 06:32N 26°08' W 080°07'0 0.0
2016-Apr-22 05:23N 26°08' W 080°07'0 0.0
2016-Apr-22 04:22N 26°08' W 080°07'0 0.0
2016-Apr-22 03:25N 26°08' W 080°07'0 0.0
2016-Apr-22 02:25N 26°08' W 080°07'0 0.0
2016-Apr-22 01:25N 26°08' W 080°07'0 0.0
2016-Apr-22 00:25N 26°08' W 080°07'0 0.0
2016-Apr-21 23:25N 26°08' W 080°07'0 0.0
2016-Apr-21 22:28N 26°08' W 080°07'0 0.0
2016-Apr-21 21:28N 26°08' W 080°07'0 0.0
2016-Apr-21 20:28N 26°08' W 080°07'0 0.0
2016-Apr-21 19:28N 26°08' W 080°07'0 0.0
2016-Apr-21 18:28N 26°08' W 080°07'0 0.0
2016-Apr-21 17:10N 26°08' W 080°07'0 0.0
2016-Apr-21 16:25N 26°08' W 080°07'  

Dump ship's entire track history